createdAt,value
2022-09-20T00:01:12.360Z,101205.81
2022-09-20T00:03:42.108Z,101207.81
2022-09-20T00:06:10.884Z,101207.66
2022-09-20T00:08:38.646Z,101202.59
2022-09-20T00:11:10.949Z,101204.41
2022-09-20T00:13:39.249Z,101204.28
2022-09-20T00:16:11.661Z,101208.66
2022-09-20T00:18:39.787Z,101210.34
2022-09-20T00:21:06.960Z,101205.28
2022-09-20T00:23:34.180Z,101218.16
2022-09-20T00:26:04.734Z,101222.25
2022-09-20T00:28:32.429Z,101215.03
2022-09-20T00:30:58.951Z,101222.78
2022-09-20T00:33:46.521Z,101221.78
2022-09-20T00:36:13.224Z,101216.03
2022-09-20T00:38:39.781Z,101222.09
2022-09-20T00:41:06.553Z,101221.69
2022-09-20T00:43:38.849Z,101234.13
2022-09-20T00:46:15.736Z,101232.44
2022-09-20T00:48:43.191Z,101232.44
2022-09-20T00:51:13.445Z,101229.22
2022-09-20T00:53:47.773Z,101232.38
2022-09-20T00:56:24.968Z,101231.94
2022-09-20T00:59:22.719Z,101235.31
2022-09-20T01:01:56.001Z,101225.44
2022-09-20T01:04:27.496Z,101235.31
2022-09-20T01:06:57.787Z,101228.88
2022-09-20T01:09:24.367Z,101235.25
2022-09-20T01:11:53.156Z,101233.53
2022-09-20T01:14:20.130Z,101236.09
2022-09-20T01:16:46.818Z,101228.88
2022-09-20T01:19:48.699Z,101232.56
2022-09-20T01:22:46.608Z,101233.53
2022-09-20T01:25:31.748Z,101232.81
2022-09-20T01:27:58.622Z,101233.97
2022-09-20T01:30:30.934Z,101231.16
2022-09-20T01:33:26.305Z,101231.88
2022-09-20T01:35:54.577Z,101229.31
2022-09-20T01:38:21.025Z,101228.78
2022-09-20T01:40:47.613Z,101229.63
2022-09-20T01:43:34.210Z,101231.63
2022-09-20T01:46:16.697Z,101236.16
2022-09-20T01:48:43.303Z,101235.47
2022-09-20T01:51:50.470Z,101239.97
2022-09-20T01:54:58.066Z,101249.03
2022-09-20T01:57:48.080Z,101239.00
2022-09-20T02:00:20.365Z,101246.19
2022-09-20T02:03:08.255Z,101239.41
2022-09-20T02:06:25.633Z,101244.66
2022-09-20T02:09:22.896Z,101247.03
2022-09-20T02:12:15.577Z,101251.88
2022-09-20T02:15:06.350Z,101247.91
2022-09-20T02:17:54.415Z,101246.22
2022-09-20T02:20:30.702Z,101250.44
2022-09-20T02:23:22.032Z,101245.22
2022-09-20T02:26:22.066Z,101243.41
2022-09-20T02:29:02.440Z,101245.38
2022-09-20T02:31:51.919Z,101248.06
2022-09-20T02:34:30.286Z,101250.06
2022-09-20T02:37:30.753Z,101252.44
2022-09-20T02:40:15.664Z,101257.50
2022-09-20T02:43:10.852Z,101253.59
2022-09-20T02:45:53.557Z,101255.59
2022-09-20T02:48:29.849Z,101256.41
2022-09-20T02:51:07.027Z,101259.50
2022-09-20T02:53:55.278Z,101262.03
2022-09-20T02:57:03.659Z,101271.06
2022-09-20T02:59:44.437Z,101258.25
2022-09-20T03:02:27.350Z,101259.09
2022-09-20T03:05:11.388Z,101266.31
2022-09-20T03:08:14.256Z,101264.31
2022-09-20T03:11:02.372Z,101270.53
2022-09-20T03:13:57.782Z,101274.06
2022-09-20T03:16:57.124Z,101283.78
2022-09-20T03:20:07.462Z,101275.75
2022-09-20T03:23:17.309Z,101271.69
2022-09-20T03:25:55.291Z,101286.09
2022-09-20T03:28:33.338Z,101275.47
2022-09-20T03:31:14.185Z,101284.09
2022-09-20T03:33:49.570Z,101279.00
2022-09-20T03:36:47.112Z,101282.69
2022-09-20T03:39:48.878Z,101286.09
2022-09-20T03:42:19.664Z,101292.41
2022-09-20T03:45:08.121Z,101294.00
2022-09-20T03:47:45.243Z,101287.19
2022-09-20T03:50:14.688Z,101280.84
2022-09-20T03:52:43.801Z,101279.00
2022-09-20T03:55:16.323Z,101286.22
2022-09-20T03:58:16.074Z,101287.78
2022-09-20T04:00:45.530Z,101288.03
2022-09-20T04:03:47.703Z,101289.34
2022-09-20T04:06:41.566Z,101292.56
2022-09-20T04:09:17.100Z,101289.50
2022-09-20T04:12:08.948Z,101292.72
2022-09-20T04:15:04.678Z,101299.78
2022-09-20T04:17:37.200Z,101304.44
2022-09-20T04:20:15.630Z,101299.91
2022-09-20T04:22:44.677Z,101302.44
2022-09-20T04:25:29.962Z,101302.75
2022-09-20T04:28:33.709Z,101303.75
2022-09-20T04:31:20.133Z,101308.97
2022-09-20T04:33:50.051Z,101303.06
2022-09-20T04:36:48.071Z,101299.94
2022-09-20T04:39:42.427Z,101305.88
2022-09-20T04:42:36.663Z,101308.41
2022-09-20T04:45:15.764Z,101309.81
2022-09-20T04:47:45.226Z,101311.66
2022-09-20T04:50:33.461Z,101313.34
2022-09-20T04:53:29.269Z,101314.78
2022-09-20T04:56:11.766Z,101318.72
2022-09-20T04:58:50.599Z,101321.41
2022-09-20T05:01:37.362Z,101328.19
2022-09-20T05:04:22.755Z,101332.97
2022-09-20T05:07:03.166Z,101325.38
2022-09-20T05:10:03.468Z,101327.91
2022-09-20T05:13:08.629Z,101331.44
2022-09-20T05:16:02.452Z,101335.81
2022-09-20T05:18:44.838Z,101339.47
2022-09-20T05:21:17.522Z,101343.56
2022-09-20T05:24:12.599Z,101342.72
2022-09-20T05:27:12.614Z,101349.53
2022-09-20T05:29:39.111Z,101346.69
2022-09-20T05:32:38.573Z,101357.56
2022-09-20T05:35:20.823Z,101359.25
2022-09-20T05:38:17.585Z,101366.31
2022-09-20T05:41:09.279Z,101371.38
2022-09-20T05:43:50.712Z,101369.84
2022-09-20T05:46:50.419Z,101379.72
2022-09-20T05:49:55.125Z,101380.41
2022-09-20T05:52:51.565Z,101388.09
2022-09-20T05:55:36.606Z,101387.63
2022-09-20T05:58:40.193Z,101388.91
2022-09-20T06:01:21.351Z,101391.78
2022-09-20T06:03:59.256Z,101392.63
2022-09-20T06:07:09.147Z,101391.84
2022-09-20T06:10:00.249Z,101394.53
2022-09-20T06:12:52.460Z,101392.84
2022-09-20T06:15:56.316Z,101396.78
2022-09-20T06:18:34.543Z,101389.03
2022-09-20T06:21:25.892Z,101404.75
2022-09-20T06:23:58.568Z,101401.06
2022-09-20T06:26:27.873Z,101401.72
2022-09-20T06:28:59.824Z,101400.19
2022-09-20T06:31:27.380Z,101397.25
2022-09-20T06:34:04.339Z,101405.00
2022-09-20T06:36:52.553Z,101406.16
2022-09-20T06:40:02.261Z,101403.22
2022-09-20T06:42:29.606Z,101401.66
2022-09-20T06:44:56.531Z,101401.81
2022-09-20T06:47:23.445Z,101402.66
2022-09-20T06:49:50.179Z,101400.25
2022-09-20T06:52:18.745Z,101398.72
2022-09-20T06:54:47.067Z,101406.75
2022-09-20T06:57:19.770Z,101407.75
2022-09-20T06:59:46.342Z,101405.34
2022-09-20T07:02:12.912Z,101408.00
2022-09-20T07:04:40.057Z,101405.47
2022-09-20T07:07:09.596Z,101410.84
2022-09-20T07:09:36.467Z,101415.22
2022-09-20T07:12:03.156Z,101421.28
2022-09-20T07:14:29.678Z,101413.53
2022-09-20T07:16:56.203Z,101412.69
2022-09-20T07:19:23.401Z,101421.88
2022-09-20T07:21:50.050Z,101420.88
2022-09-20T07:24:16.620Z,101421.72
2022-09-20T07:27:04.978Z,101423.97
2022-09-20T07:29:31.610Z,101429.34
2022-09-20T07:31:58.765Z,101432.31
2022-09-20T07:34:25.675Z,101431.63
2022-09-20T07:36:52.354Z,101438.53
2022-09-20T07:39:18.900Z,101444.06
2022-09-20T07:41:51.134Z,101436.00
2022-09-20T07:44:22.117Z,101454.41
2022-09-20T07:46:53.046Z,101451.56
2022-09-20T07:49:21.246Z,101451.44
2022-09-20T07:51:49.128Z,101446.19
2022-09-20T07:54:15.924Z,101451.81
2022-09-20T07:56:43.433Z,101451.09
2022-09-20T07:59:13.600Z,101458.16
2022-09-20T08:01:41.207Z,101459.84
2022-09-20T08:04:11.331Z,101458.84
2022-09-20T08:06:42.794Z,101465.59
2022-09-20T08:09:11.319Z,101461.66
2022-09-20T08:11:39.632Z,101467.56
2022-09-20T08:14:08.858Z,101461.03
2022-09-20T08:16:41.466Z,101467.25
2022-09-20T08:19:08.211Z,101466.00
2022-09-20T08:21:37.957Z,101467.81
2022-09-20T08:24:04.682Z,101466.53
2022-09-20T08:26:31.671Z,101459.31
2022-09-20T08:28:59.972Z,101467.19
2022-09-20T08:31:31.445Z,101469.66
2022-09-20T08:33:59.136Z,101469.00
2022-09-20T08:36:27.090Z,101471.03
2022-09-20T08:42:14.685Z,101478.66
2022-09-20T08:45:00.014Z,101483.13
2022-09-20T08:47:35.786Z,101471.50
2022-09-20T08:50:09.965Z,101472.22
2022-09-20T08:52:40.121Z,101480.66
2022-09-20T08:55:36.405Z,101482.59
2022-09-20T08:58:08.198Z,101488.66
2022-09-20T09:00:37.137Z,101485.88
2022-09-20T09:03:16.927Z,101489.38
2022-09-20T09:05:46.657Z,101482.03
2022-09-20T09:08:17.239Z,101485.91
2022-09-20T09:10:56.736Z,101483.31
2022-09-20T09:13:44.599Z,101485.81
2022-09-20T09:16:15.003Z,101488.97
2022-09-20T09:18:44.629Z,101474.22
2022-09-20T09:21:29.906Z,101484.31
2022-09-20T09:24:09.432Z,101475.25
2022-09-20T09:26:38.801Z,101464.44
2022-09-20T09:29:24.575Z,101479.63
2022-09-20T09:31:54.683Z,101482.75
2022-09-20T09:34:34.080Z,101480.13
2022-09-20T09:37:00.987Z,101486.22
2022-09-20T09:39:31.652Z,101486.34
2022-09-20T09:42:02.172Z,101486.13
2022-09-20T09:44:32.698Z,101492.00
2022-09-20T09:46:59.960Z,101489.44
2022-09-20T09:49:37.146Z,101489.19
2022-09-20T09:52:24.690Z,101491.28
2022-09-20T09:55:01.978Z,101490.59
2022-09-20T09:57:54.246Z,101483.28
2022-09-20T10:00:22.958Z,101486.38
2022-09-20T10:03:05.942Z,101491.16
2022-09-20T10:06:08.161Z,101492.19
2022-09-20T10:09:12.283Z,101483.19
2022-09-20T10:11:44.809Z,101488.88
2022-09-20T10:14:20.379Z,101486.78
2022-09-20T10:16:53.081Z,101486.97
2022-09-20T10:19:24.791Z,101488.78
2022-09-20T10:22:20.085Z,101483.88
2022-09-20T10:25:00.823Z,101481.28
2022-09-20T10:28:02.965Z,101480.88
2022-09-20T10:30:56.896Z,101483.59
2022-09-20T10:33:51.460Z,101491.25
2022-09-20T10:36:45.469Z,101490.63
2022-09-20T10:39:34.386Z,101486.81
2022-09-20T10:43:00.840Z,101475.97
2022-09-20T10:46:08.755Z,101477.66
2022-09-20T10:48:53.188Z,101494.03
2022-09-20T10:51:44.503Z,101474.94
2022-09-20T10:54:32.485Z,101486.72
2022-09-20T10:57:46.456Z,101483.66
2022-09-20T11:00:37.405Z,101483.31
2022-09-20T11:03:49.378Z,101471.84
2022-09-20T11:06:24.666Z,101480.94
2022-09-20T11:08:56.349Z,101473.16
2022-09-20T11:11:28.668Z,101471.47
2022-09-20T11:14:10.998Z,101479.75
2022-09-20T11:16:46.029Z,101481.13
2022-09-20T11:19:26.716Z,101488.72
2022-09-20T11:22:01.226Z,101484.50
2022-09-20T11:24:36.193Z,101493.75
2022-09-20T11:27:08.226Z,101492.72
2022-09-20T11:29:46.677Z,101498.47
2022-09-20T11:32:53.122Z,101494.84
2022-09-20T11:35:46.188Z,101492.63
2022-09-20T11:38:52.891Z,101496.56
2022-09-20T11:41:31.001Z,101489.38
2022-09-20T11:44:06.977Z,101493.53
2022-09-20T11:46:50.387Z,101506.94
2022-09-20T11:49:39.851Z,101513.38
2022-09-20T11:52:17.465Z,101533.34
2022-09-20T11:54:59.356Z,101533.28
2022-09-20T11:57:26.247Z,101549.19
2022-09-20T11:59:56.671Z,101564.13
2022-09-20T12:02:35.615Z,101575.66
2022-09-20T12:05:06.381Z,101568.81
2022-09-20T12:07:41.146Z,101563.34
2022-09-20T12:10:24.942Z,101576.19
2022-09-20T12:13:04.396Z,101567.69
2022-09-20T12:15:35.346Z,101581.28
2022-09-20T12:18:09.417Z,101595.53
2022-09-20T12:20:36.228Z,101595.97
2022-09-20T12:23:42.859Z,101601.53
2022-09-20T12:26:21.601Z,101594.94
2022-09-20T12:28:55.317Z,101598.16
2022-09-20T12:31:21.896Z,101595.00
2022-09-20T12:34:03.627Z,101584.34
2022-09-20T12:36:36.255Z,101578.09
2022-09-20T12:39:12.064Z,101586.84
2022-09-20T12:41:50.989Z,101589.75
2022-09-20T12:44:40.852Z,101583.38
2022-09-20T12:47:10.350Z,101578.25
2022-09-20T12:50:04.326Z,101583.47
2022-09-20T12:52:58.003Z,101584.31
2022-09-20T12:55:32.013Z,101582.59
2022-09-20T12:58:01.991Z,101586.09
2022-09-20T13:00:55.471Z,101580.84
2022-09-20T13:03:29.445Z,101579.31
2022-09-20T13:06:14.837Z,101574.81
2022-09-20T13:09:09.285Z,101574.38
2022-09-20T13:11:45.737Z,101565.38
2022-09-20T13:14:18.383Z,101563.69
2022-09-20T13:17:06.291Z,101570.56
2022-09-20T13:19:38.965Z,101563.56
2022-09-20T13:22:25.950Z,101575.13
2022-09-20T13:25:00.834Z,101566.44
2022-09-20T13:27:34.568Z,101581.75
2022-09-20T13:30:21.375Z,101578.22
2022-09-20T13:32:49.161Z,101579.91
2022-09-20T13:35:23.537Z,101580.06
2022-09-20T13:37:54.919Z,101584.78
2022-09-20T13:40:23.365Z,101589.34
2022-09-20T13:42:52.438Z,101578.72
2022-09-20T13:45:22.105Z,101578.47
2022-09-20T13:47:51.981Z,101581.59
2022-09-20T13:50:18.744Z,101588.03
2022-09-20T13:52:53.174Z,101583.22
2022-09-20T13:55:27.506Z,101577.22
2022-09-20T13:57:56.823Z,101576.66
2022-09-20T14:00:27.623Z,101579.09
2022-09-20T14:02:55.033Z,101584.25
2022-09-20T14:05:26.075Z,101585.03
2022-09-20T14:07:54.329Z,101587.06
2022-09-20T14:10:27.260Z,101594.78
2022-09-20T14:12:54.883Z,101597.50
2022-09-20T14:15:22.177Z,101594.47
2022-09-20T14:17:52.085Z,101589.31
2022-09-20T14:20:18.842Z,101600.16
2022-09-20T14:22:45.703Z,101596.41
2022-09-20T14:25:12.429Z,101608.41
2022-09-20T14:27:39.078Z,101613.22
2022-09-20T14:30:07.393Z,101612.50
2022-09-20T14:32:50.723Z,101622.09
2022-09-20T14:35:20.366Z,101624.09
2022-09-20T14:37:53.732Z,101621.63
2022-09-20T14:40:29.217Z,101622.69
2022-09-20T14:43:01.176Z,101626.25
2022-09-20T14:45:40.223Z,101630.63
2022-09-20T14:48:26.704Z,101637.72
2022-09-20T14:51:28.614Z,101641.44
2022-09-20T14:54:03.958Z,101650.06
2022-09-20T14:56:39.422Z,101650.22
2022-09-20T14:59:19.295Z,101659.19
2022-09-20T15:02:00.646Z,101659.66
2022-09-20T15:04:32.683Z,101664.72
2022-09-20T15:07:05.064Z,101664.38
2022-09-20T15:09:31.700Z,101661.34
2022-09-20T15:12:15.401Z,101657.97
2022-09-20T15:14:42.309Z,101659.13
2022-09-20T15:17:26.703Z,101662.66
2022-09-20T15:19:53.752Z,101655.41
2022-09-20T15:22:20.694Z,101665.00
2022-09-20T15:24:47.439Z,101660.56
2022-09-20T15:27:14.424Z,101657.28
2022-09-20T15:29:41.160Z,101649.53
2022-09-20T15:32:10.437Z,101651.03
2022-09-20T15:34:36.985Z,101652.25
2022-09-20T15:37:03.558Z,101654.22
2022-09-20T15:39:30.203Z,101660.66
2022-09-20T15:41:57.168Z,101651.22
2022-09-20T15:44:23.669Z,101658.31
2022-09-20T15:46:51.365Z,101659.13
2022-09-20T15:49:17.890Z,101661.28
2022-09-20T15:51:45.266Z,101659.22
2022-09-20T15:54:14.077Z,101661.91
2022-09-20T15:56:41.494Z,101657.88
2022-09-20T15:59:10.737Z,101659.34
2022-09-20T16:01:42.227Z,101656.78
2022-09-20T16:04:12.384Z,101662.81
2022-09-20T16:06:40.989Z,101658.88
2022-09-20T16:09:08.331Z,101667.16
2022-09-20T16:11:35.760Z,101658.00
2022-09-20T16:14:02.766Z,101661.00
2022-09-20T16:16:33.167Z,101670.28
2022-09-20T16:19:20.527Z,101671.28
2022-09-20T16:21:58.908Z,101679.47
2022-09-20T16:24:28.258Z,101674.75
2022-09-20T16:26:55.112Z,101667.28
2022-09-20T16:29:25.988Z,101676.56
2022-09-20T16:31:54.422Z,101682.25
2022-09-20T16:34:22.546Z,101678.91
2022-09-20T16:36:51.215Z,101685.63
2022-09-20T16:39:19.394Z,101690.28
2022-09-20T16:41:48.191Z,101691.06
2022-09-20T16:44:15.244Z,101684.78
2022-09-20T16:46:41.838Z,101691.31
2022-09-20T16:49:11.586Z,101701.06
2022-09-20T16:51:40.638Z,101698.38
2022-09-20T16:54:12.555Z,101699.78
2022-09-20T16:56:48.049Z,101706.47
2022-09-20T16:59:16.359Z,101706.69
2022-09-20T17:01:43.976Z,101700.00
2022-09-20T17:04:14.052Z,101708.75
2022-09-20T17:06:43.393Z,101710.84
2022-09-20T17:09:11.056Z,101708.53
2022-09-20T17:11:40.299Z,101714.91
2022-09-20T17:14:07.903Z,101708.84
2022-09-20T17:16:36.968Z,101715.41
2022-09-20T17:19:09.443Z,101713.00
2022-09-20T17:21:44.709Z,101714.03
2022-09-20T17:24:11.636Z,101723.88
2022-09-20T17:26:40.870Z,101726.81
2022-09-20T17:29:10.278Z,101724.16
2022-09-20T17:31:41.576Z,101722.81
2022-09-20T17:34:11.013Z,101729.97
2022-09-20T17:36:45.967Z,101736.34
2022-09-20T17:39:14.111Z,101735.50
2022-09-20T17:41:42.810Z,101736.50
2022-09-20T17:44:10.170Z,101744.84
2022-09-20T17:46:41.547Z,101750.50
2022-09-20T17:49:10.646Z,101747.38
2022-09-20T17:51:45.640Z,101745.53
2022-09-20T17:54:13.975Z,101754.50
2022-09-20T17:56:46.405Z,101750.22
2022-09-20T17:59:16.118Z,101753.75
2022-09-20T18:01:44.582Z,101753.75
2022-09-20T18:04:11.528Z,101757.03
2022-09-20T18:06:43.288Z,101763.09
2022-09-20T18:09:13.795Z,101767.19
2022-09-20T18:11:41.676Z,101772.75
2022-09-20T18:14:13.434Z,101769.66
2022-09-20T18:16:40.410Z,101776.03
2022-09-20T18:19:08.560Z,101779.13
2022-09-20T18:21:36.761Z,101780.66
2022-09-20T18:24:08.010Z,101787.44
2022-09-20T18:26:35.352Z,101788.16
2022-09-20T18:29:05.201Z,101788.31
2022-09-20T18:31:37.378Z,101798.34
2022-09-20T18:34:06.547Z,101792.97
2022-09-20T18:36:36.108Z,101792.41
2022-09-20T18:39:03.142Z,101795.22
2022-09-20T18:41:34.424Z,101803.59
2022-09-20T18:44:03.971Z,101810.09
2022-09-20T18:46:31.383Z,101811.78
2022-09-20T18:49:05.033Z,101812.78
2022-09-20T18:51:35.874Z,101811.25
2022-09-20T18:54:05.790Z,101822.13
2022-09-20T18:56:34.620Z,101820.00
2022-09-20T18:59:06.624Z,101825.53
2022-09-20T19:01:54.642Z,101831.03
2022-09-20T19:04:29.794Z,101829.34
2022-09-20T19:07:21.157Z,101828.63
2022-09-20T19:10:06.001Z,101828.06
2022-09-20T19:12:53.754Z,101836.69
2022-09-20T19:15:23.326Z,101837.81
2022-09-20T19:18:18.351Z,101837.81
2022-09-20T19:20:54.147Z,101846.31
2022-09-20T19:23:45.172Z,101851.97
2022-09-20T19:26:25.261Z,101853.09
2022-09-20T19:28:55.128Z,101857.06
2022-09-20T19:31:26.062Z,101860.72
2022-09-20T19:33:57.044Z,101857.34
2022-09-20T19:36:39.877Z,101856.91
2022-09-20T19:39:06.503Z,101866.78
2022-09-20T19:41:51.006Z,101868.91
2022-09-20T19:44:18.304Z,101871.03
2022-09-20T19:46:47.644Z,101877.13
2022-09-20T19:49:18.535Z,101874.97
2022-09-20T19:51:45.508Z,101877.50
2022-09-20T19:54:14.919Z,101880.78
2022-09-20T19:56:52.880Z,101879.50
2022-09-20T19:59:21.625Z,101883.06
2022-09-20T20:01:48.391Z,101873.13
2022-09-20T20:04:15.333Z,101881.59
2022-09-20T20:07:17.084Z,101881.75
2022-09-20T20:10:11.984Z,101887.66
2022-09-20T20:12:57.644Z,101888.22
2022-09-20T20:15:36.166Z,101894.56
2022-09-20T20:18:35.479Z,101891.88
2022-09-20T20:21:08.784Z,101893.56
2022-09-20T20:23:56.628Z,101891.03
2022-09-20T20:26:25.528Z,101895.66
2022-09-20T20:28:52.923Z,101900.19
2022-09-20T20:31:20.894Z,101891.69
2022-09-20T20:33:47.637Z,101894.53
2022-09-20T20:36:14.236Z,101894.81
2022-09-20T20:38:43.439Z,101902.34
2022-09-20T20:41:13.129Z,101900.56
2022-09-20T20:43:42.049Z,101907.75
2022-09-20T20:46:11.097Z,101903.94
2022-09-20T20:48:37.998Z,101905.03
2022-09-20T20:51:05.789Z,101900.94
2022-09-20T20:53:34.838Z,101908.84
2022-09-20T20:56:09.761Z,101904.03
2022-09-20T20:58:40.711Z,101903.19
2022-09-20T21:01:22.301Z,101909.56
2022-09-20T21:03:52.341Z,101914.78
2022-09-20T21:06:20.698Z,101918.00
2022-09-20T21:08:49.768Z,101919.97
2022-09-20T21:11:23.422Z,101920.34
2022-09-20T21:13:54.609Z,101923.59
2022-09-20T21:16:27.041Z,101917.09
2022-09-20T21:18:53.822Z,101920.63
2022-09-20T21:21:22.815Z,101926.00
2022-09-20T21:23:51.661Z,101927.00
2022-09-20T21:26:19.537Z,101931.38
2022-09-20T21:28:53.850Z,101932.84
2022-09-20T21:31:22.399Z,101931.69
2022-09-20T21:33:49.441Z,101929.59
2022-09-20T21:36:18.357Z,101936.09
2022-09-20T21:38:45.969Z,101925.47
2022-09-20T21:41:17.680Z,101930.00
2022-09-20T21:43:46.053Z,101931.97
2022-09-20T21:46:17.652Z,101940.16
2022-09-20T21:48:45.082Z,101938.59
2022-09-20T21:51:13.988Z,101931.53
2022-09-20T21:53:40.977Z,101925.88
2022-09-20T21:56:09.774Z,101937.34
2022-09-20T21:58:39.972Z,101937.59
2022-09-20T22:01:11.301Z,101944.69
2022-09-20T22:03:43.150Z,101949.06
2022-09-20T22:06:20.893Z,101948.78
2022-09-20T22:08:52.244Z,101961.22
2022-09-20T22:11:21.297Z,101973.53
2022-09-20T22:13:52.765Z,101976.94
2022-09-20T22:16:24.483Z,101973.38
2022-09-20T22:18:52.124Z,101970.69
2022-09-20T22:21:22.034Z,101967.88
2022-09-20T22:24:00.777Z,101971.31
2022-09-20T22:26:32.380Z,101973.13
2022-09-20T22:28:59.226Z,101971.16
2022-09-20T22:31:28.226Z,101977.53
2022-09-20T22:33:57.379Z,101976.94
2022-09-20T22:36:30.041Z,101975.50
2022-09-20T22:38:56.888Z,101971.69
2022-09-20T22:41:24.050Z,101978.91
2022-09-20T22:43:50.659Z,101977.19
2022-09-20T22:46:19.581Z,101980.03
2022-09-20T22:48:46.610Z,101970.84
2022-09-20T22:51:18.658Z,101973.53
2022-09-20T22:53:46.539Z,101976.22
2022-09-20T22:56:21.636Z,101977.47
2022-09-20T22:58:53.812Z,101967.72
2022-09-20T23:01:23.664Z,101974.94
2022-09-20T23:03:56.355Z,101973.94
2022-09-20T23:06:25.923Z,101971.41
2022-09-20T23:08:55.263Z,101977.00
2022-09-20T23:11:22.598Z,101975.72
2022-09-20T23:13:53.874Z,101980.81
2022-09-20T23:16:23.121Z,101978.72
2022-09-20T23:18:51.074Z,101970.66
2022-09-20T23:21:18.462Z,101969.81
2022-09-20T23:23:45.887Z,101977.16
2022-09-20T23:26:14.886Z,101983.06
2022-09-20T23:28:44.248Z,101979.53
2022-09-20T23:31:13.089Z,101986.75
2022-09-20T23:33:43.553Z,101989.44
2022-09-20T23:36:12.597Z,101981.50
2022-09-20T23:38:39.160Z,101988.59
2022-09-20T23:41:11.795Z,101986.75
2022-09-20T23:43:38.675Z,101985.75
2022-09-20T23:46:06.395Z,101988.31
2022-09-20T23:48:33.470Z,101987.47
2022-09-20T23:51:00.042Z,101988.59
2022-09-20T23:53:26.598Z,101987.72
2022-09-20T23:55:53.092Z,101986.41
2022-09-20T23:58:19.646Z,101993.91
